Time;durP1;ratioP1;P1;durP2;ratioP2;P2;SDS_P1;SDS_P2;PMS_P1;PMS_P2;Temp;Humidity;BMP_temperature;BMP_pressure;BME280_temperature;BME280_humidity;BME280_pressure;Samples;Min_cycle;Max_cycle;Signal;HPM_P1;HPM_P2
2023/03/19 00:01:11;;;;;;;7.18;2.55;;;12.00;99.90;;;;;;5031694;28;20171;-49
2023/03/19 00:03:37;;;;;;;10.38;4.10;;;12.00;99.90;;;;;;5031867;28;20159;-44
2023/03/19 00:06:02;;;;;;;14.32;4.88;;;11.90;99.90;;;;;;5031744;28;20174;-53
2023/03/19 00:08:28;;;;;;;32.15;13.80;;;11.90;99.90;;;;;;5031953;28;20604;-43
2023/03/19 00:10:54;;;;;;;33.90;14.85;;;11.80;99.90;;;;;;5031739;28;20230;-46
2023/03/19 00:13:20;;;;;;;22.42;9.68;;;11.80;99.90;;;;;;5032062;28;20171;-47
2023/03/19 00:15:46;;;;;;;11.73;4.60;;;11.80;99.90;;;;;;5031528;28;20642;-50
2023/03/19 00:18:12;;;;;;;11.15;3.42;;;11.80;99.90;;;;;;5031217;28;20631;-53
2023/03/19 00:20:37;;;;;;;8.10;3.35;;;11.70;99.90;;;;;;5031562;28;20186;-51
2023/03/19 00:23:03;;;;;;;7.25;3.60;;;11.70;99.90;;;;;;5031861;28;20278;-54
2023/03/19 00:25:29;;;;;;;37.20;13.73;;;11.70;99.90;;;;;;5031563;28;20658;-51
2023/03/19 00:27:55;;;;;;;8.13;3.60;;;11.70;99.90;;;;;;5031509;28;20635;-51
2023/03/19 00:30:22;;;;;;;7.75;2.92;;;11.70;99.90;;;;;;5032165;28;20179;-52
2023/03/19 00:32:48;;;;;;;17.00;6.20;;;11.60;99.90;;;;;;5032119;28;20167;-49
2023/03/19 00:35:14;;;;;;;9.75;5.28;;;11.50;99.90;;;;;;5031447;28;20263;-51
2023/03/19 00:37:40;;;;;;;10.02;3.90;;;11.50;99.90;;;;;;5033891;28;20195;-51
2023/03/19 00:40:07;;;;;;;8.75;3.25;;;11.50;99.90;;;;;;5035399;28;20246;-45
2023/03/19 00:42:32;;;;;;;4.57;2.92;;;11.40;99.90;;;;;;5034776;28;20203;-52
2023/03/19 00:44:58;;;;;;;4.82;2.47;;;11.40;99.90;;;;;;5035325;28;20163;-54
2023/03/19 00:47:24;;;;;;;9.20;3.13;;;11.30;99.90;;;;;;5035331;28;20702;-54
2023/03/19 00:49:50;;;;;;;18.58;5.60;;;11.30;99.90;;;;;;5035713;28;20175;-52
2023/03/19 00:52:15;;;;;;;10.35;3.17;;;11.30;99.90;;;;;;5035181;28;20163;-50
2023/03/19 00:54:41;;;;;;;8.95;2.90;;;11.20;99.90;;;;;;5035404;28;20187;-54
2023/03/19 00:57:07;;;;;;;41.17;13.32;;;11.20;99.90;;;;;;5035105;28;20167;-53
2023/03/19 00:59:32;;;;;;;13.55;4.70;;;11.20;99.90;;;;;;5033872;28;20599;-43
2023/03/19 01:01:58;;;;;;;13.38;4.57;;;11.10;99.90;;;;;;5035196;28;20260;-43
2023/03/19 01:04:24;;;;;;;7.15;3.70;;;11.10;99.90;;;;;;5034716;28;20631;-43
2023/03/19 01:06:50;;;;;;;4.85;2.65;;;11.10;99.90;;;;;;5034882;28;20539;-43
2023/03/19 01:09:16;;;;;;;10.45;4.35;;;11.10;99.90;;;;;;5034589;28;20203;-45
2023/03/19 01:11:41;;;;;;;20.13;5.88;;;11.10;99.90;;;;;;5034486;28;20179;-44
2023/03/19 01:14:07;;;;;;;8.20;3.38;;;11.10;99.90;;;;;;5034621;28;20181;-44
2023/03/19 01:16:33;;;;;;;4.63;2.13;;;11.10;99.90;;;;;;5034663;28;20258;-43
2023/03/19 01:19:00;;;;;;;5.78;2.40;;;11.10;99.90;;;;;;5034756;28;20186;-43
2023/03/19 01:21:26;;;;;;;6.18;2.15;;;11.10;99.90;;;;;;5033350;28;20229;-43
2023/03/19 01:23:52;;;;;;;5.30;2.20;;;11.00;99.90;;;;;;5035186;28;20179;-45
2023/03/19 01:26:18;;;;;;;2.78;2.22;;;11.10;99.90;;;;;;5034597;28;20163;-44
2023/03/19 01:28:44;;;;;;;4.47;2.00;;;11.10;99.90;;;;;;5034840;28;20217;-46
2023/03/19 01:31:10;;;;;;;4.57;2.72;;;11.10;99.90;;;;;;5034478;28;20178;-45
2023/03/19 01:33:36;;;;;;;5.40;2.83;;;11.20;99.90;;;;;;5034474;28;20654;-43
2023/03/19 01:36:03;;;;;;;7.22;3.55;;;11.20;99.90;;;;;;5033113;28;20199;-43
2023/03/19 01:38:29;;;;;;;7.05;2.28;;;11.10;99.90;;;;;;5034358;28;20209;-43
2023/03/19 01:40:56;;;;;;;3.70;2.25;;;11.20;99.90;;;;;;5034123;28;20180;-43
2023/03/19 01:43:29;;;;;;;5.57;2.45;;;11.20;99.90;;;;;;5034393;28;20213;-45
2023/03/19 01:46:03;;;;;;;4.78;2.50;;;11.20;99.90;;;;;;5034483;28;20198;-45
2023/03/19 01:48:47;;;;;;;3.55;2.63;;;11.20;99.90;;;;;;5033397;28;20171;-45
2023/03/19 01:51:15;;;;;;;2.80;2.10;;;11.30;99.90;;;;;;5034144;28;20195;-43
2023/03/19 01:53:46;;;;;;;2.47;1.80;;;11.30;99.90;;;;;;5034501;28;20187;-43
2023/03/19 01:56:16;;;;;;;4.57;1.98;;;11.40;99.90;;;;;;5034390;28;20536;-43
2023/03/19 01:58:45;;;;;;;10.30;2.20;;;11.50;99.90;;;;;;5033992;28;20178;-45
2023/03/19 02:01:11;;;;;;;2.60;1.92;;;11.50;99.90;;;;;;5034177;28;20168;-46
2023/03/19 02:03:38;;;;;;;3.58;1.98;;;11.50;99.90;;;;;;5033938;28;20175;-48
2023/03/19 02:06:04;;;;;;;4.28;1.80;;;11.50;99.90;;;;;;5034109;28;20639;-48
2023/03/19 02:08:30;;;;;;;5.45;2.10;;;;;;;;;;5033666;28;20223;-48
2023/03/19 02:10:59;;;;;;;5.20;2.50;;;11.60;99.90;;;;;;5033519;28;20171;-50
2023/03/19 02:13:25;;;;;;;4.05;2.65;;;11.60;99.90;;;;;;5033744;28;20718;-53
2023/03/19 02:15:54;;;;;;;4.68;2.28;;;11.50;99.90;;;;;;5034311;28;20232;-47
2023/03/19 02:18:20;;;;;;;4.78;2.22;;;11.60;99.90;;;;;;5034047;28;20163;-45
2023/03/19 02:21:07;;;;;;;7.13;2.17;;;11.60;99.90;;;;;;5033480;28;20187;-47
2023/03/19 02:23:52;;;;;;;4.65;2.20;;;11.60;99.90;;;;;;5033270;28;20207;-45
2023/03/19 02:26:20;;;;;;;6.43;1.90;;;11.60;99.90;;;;;;5033734;28;20172;-48
2023/03/19 02:28:48;;;;;;;5.85;2.67;;;11.70;99.90;;;;;;5033396;28;20702;-44
2023/03/19 02:31:15;;;;;;;3.42;1.95;;;11.70;99.90;;;;;;5033011;28;20635;-43
2023/03/19 02:33:41;;;;;;;5.75;2.10;;;11.80;99.90;;;;;;5033639;28;20309;-48
2023/03/19 02:36:13;;;;;;;3.25;2.05;;;11.70;99.90;;;;;;5033483;28;20196;-43
2023/03/19 02:38:41;;;;;;;3.83;2.13;;;11.80;99.90;;;;;;5033471;28;20167;-44
2023/03/19 02:41:08;;;;;;;3.85;2.20;;;11.80;99.90;;;;;;5033240;28;20163;-44
2023/03/19 02:43:37;;;;;;;4.10;2.13;;;11.70;99.90;;;;;;5033219;28;20183;-46
2023/03/19 02:46:05;;;;;;;5.15;2.60;;;11.70;99.90;;;;;;5033206;28;20160;-44
2023/03/19 02:48:31;;;;;;;4.07;2.30;;;11.70;99.90;;;;;;5033107;28;20193;-43
2023/03/19 02:50:57;;;;;;;3.15;2.30;;;11.70;99.90;;;;;;5032876;28;20171;-47
2023/03/19 02:53:23;;;;;;;5.18;2.90;;;11.90;99.90;;;;;;5033036;28;20632;-43
2023/03/19 02:55:49;;;;;;;9.07;3.20;;;11.80;99.90;;;;;;5033346;28;20179;-44
2023/03/19 02:58:15;;;;;;;6.70;3.15;;;11.80;99.90;;;;;;5032853;28;20239;-43
2023/03/19 03:00:41;;;;;;;8.55;3.42;;;11.80;99.90;;;;;;5032106;28;20253;-44
2023/03/19 03:03:07;;;;;;;7.03;3.30;;;11.80;99.90;;;;;;5032382;28;20299;-43
2023/03/19 03:05:33;;;;;;;7.47;3.30;;;11.80;99.90;;;;;;5032544;28;20247;-49
2023/03/19 03:07:59;;;;;;;5.10;3.00;;;11.80;99.90;;;;;;5031203;28;20698;-44
2023/03/19 03:10:25;;;;;;;6.95;3.00;;;11.80;99.90;;;;;;5032653;28;20168;-44
2023/03/19 03:12:51;;;;;;;3.53;2.80;;;11.80;99.90;;;;;;5032834;28;20333;-47
2023/03/19 03:15:16;;;;;;;5.18;2.63;;;11.80;99.90;;;;;;5032493;28;20769;-46
2023/03/19 03:17:44;;;;;;;4.25;2.90;;;11.70;99.90;;;;;;5032591;28;20662;-49
2023/03/19 03:20:11;;;;;;;6.10;3.10;;;11.70;99.90;;;;;;5032673;28;20172;-43
2023/03/19 03:22:38;;;;;;;5.15;2.83;;;11.70;99.90;;;;;;5032568;28;20297;-45
2023/03/19 03:25:04;;;;;;;7.32;3.45;;;11.80;99.90;;;;;;5032637;28;20174;-48
2023/03/19 03:27:30;;;;;;;6.05;3.00;;;11.80;99.90;;;;;;5032313;28;20175;-47
2023/03/19 03:29:56;;;;;;;7.05;2.50;;;11.80;99.90;;;;;;5032026;28;20171;-48
2023/03/19 03:32:23;;;;;;;5.05;3.08;;;;;;;;;;5031785;28;20206;-43
2023/03/19 03:34:49;;;;;;;5.30;2.65;;;;;;;;;;5032158;28;20214;-46
2023/03/19 03:37:16;;;;;;;5.65;3.03;;;11.60;99.90;;;;;;5031506;28;20178;-46
2023/03/19 03:39:42;;;;;;;3.45;2.35;;;11.60;99.90;;;;;;5031472;28;20673;-46
2023/03/19 03:42:08;;;;;;;4.18;2.15;;;11.60;99.90;;;;;;5031363;28;20207;-44
2023/03/19 03:44:33;;;;;;;3.95;2.30;;;11.50;99.90;;;;;;5031548;28;20221;-48
2023/03/19 03:46:59;;;;;;;6.20;3.42;;;11.50;99.90;;;;;;5031495;28;20172;-46
2023/03/19 03:49:24;;;;;;;4.32;2.55;;;11.60;99.90;;;;;;5031144;28;20178;-45
2023/03/19 03:51:50;;;;;;;4.72;2.30;;;11.60;99.90;;;;;;5031581;28;20183;-46
2023/03/19 03:54:16;;;;;;;6.50;2.80;;;11.60;99.90;;;;;;5031134;28;20655;-45
2023/03/19 03:56:42;;;;;;;5.30;2.67;;;11.60;99.90;;;;;;5031391;28;20541;-47
2023/03/19 03:59:08;;;;;;;4.70;2.35;;;11.60;99.90;;;;;;5031566;28;20179;-49
2023/03/19 04:01:34;;;;;;;4.10;2.33;;;11.60;99.90;;;;;;5031183;28;20730;-48
2023/03/19 04:04:00;;;;;;;4.95;2.60;;;11.60;99.90;;;;;;5031196;28;20168;-50
2023/03/19 04:06:26;;;;;;;5.30;2.55;;;11.50;99.90;;;;;;5031279;28;20175;-48
2023/03/19 04:08:51;;;;;;;2.78;2.03;;;11.40;99.90;;;;;;5031415;28;20733;-49
2023/03/19 04:11:17;;;;;;;3.72;2.00;;;11.40;99.90;;;;;;5030930;28;20183;-43
2023/03/19 04:13:43;;;;;;;5.40;2.30;;;11.30;99.90;;;;;;5030249;28;20178;-43
2023/03/19 04:16:09;;;;;;;6.95;2.40;;;11.30;99.90;;;;;;5030885;28;20265;-54
2023/03/19 04:18:36;;;;;;;4.72;2.63;;;11.30;99.90;;;;;;5031017;28;20254;-43
2023/03/19 04:21:04;;;;;;;5.00;2.58;;;11.30;99.90;;;;;;5031147;28;20171;-43
2023/03/19 04:23:30;;;;;;;4.15;2.42;;;11.30;99.90;;;;;;5029919;28;20239;-44
2023/03/19 04:26:00;;;;;;;5.80;2.20;;;11.30;99.90;;;;;;5030730;28;20210;-43
2023/03/19 04:28:27;;;;;;;7.22;2.38;;;11.30;99.90;;;;;;5030530;28;20175;-42
2023/03/19 04:30:58;;;;;;;7.95;2.53;;;11.30;99.90;;;;;;5030994;28;20172;-43
2023/03/19 04:33:24;;;;;;;6.45;2.55;;;;;;;;;;5030844;28;20179;-43
2023/03/19 04:35:49;;;;;;;4.35;2.65;;;11.20;99.90;;;;;;5031526;28;20171;-43
2023/03/19 04:38:15;;;;;;;6.97;2.50;;;11.20;99.90;;;;;;5030872;28;20174;-43
2023/03/19 04:40:41;;;;;;;8.23;3.15;;;11.20;99.90;;;;;;5031040;28;20190;-43
2023/03/19 04:43:06;;;;;;;4.90;2.30;;;11.20;99.90;;;;;;5030832;28;20217;-44
2023/03/19 04:45:32;;;;;;;9.88;3.22;;;11.20;99.90;;;;;;5030835;28;20171;-44
2023/03/19 04:47:57;;;;;;;5.15;2.88;;;11.20;99.90;;;;;;5030884;28;20175;-43
2023/03/19 04:50:23;;;;;;;7.43;2.58;;;;;;;;;;5031083;28;20201;-44
2023/03/19 04:52:49;;;;;;;4.32;2.80;;;11.20;99.90;;;;;;5031210;28;20187;-44
2023/03/19 04:55:15;;;;;;;6.28;2.50;;;11.10;99.90;;;;;;5031082;28;20175;-44
2023/03/19 04:57:40;;;;;;;3.70;2.00;;;;;;;;;;5030762;28;20168;-43
2023/03/19 05:00:07;;;;;;;2.92;1.83;;;11.10;99.90;;;;;;5030528;28;20182;-45
2023/03/19 05:02:33;;;;;;;5.30;2.38;;;11.10;99.90;;;;;;5030900;28;20207;-44
2023/03/19 05:04:58;;;;;;;4.97;2.17;;;11.10;99.90;;;;;;5030693;28;20325;-44
2023/03/19 05:07:25;;;;;;;3.45;2.10;;;11.10;99.90;;;;;;5030324;28;20219;-43
2023/03/19 05:09:51;;;;;;;3.83;2.20;;;11.10;99.90;;;;;;5031453;28;20168;-43
2023/03/19 05:12:16;;;;;;;2.65;2.15;;;11.10;99.90;;;;;;5030409;28;20530;-43
2023/03/19 05:14:42;;;;;;;4.47;1.73;;;11.10;99.90;;;;;;5030635;28;20163;-44
2023/03/19 05:17:09;;;;;;;5.90;2.10;;;11.10;99.90;;;;;;5030689;28;20512;-47
2023/03/19 05:19:36;;;;;;;3.28;1.70;;;11.10;99.90;;;;;;5030537;28;20191;-44
2023/03/19 05:22:01;;;;;;;2.88;1.88;;;11.10;99.90;;;;;;5030447;28;20594;-43
2023/03/19 05:24:27;;;;;;;2.10;1.77;;;11.10;99.90;;;;;;5032262;28;20173;-43
2023/03/19 05:26:52;;;;;;;4.72;2.50;;;11.10;99.90;;;;;;5034169;28;20185;-44
2023/03/19 05:29:18;;;;;;;2.45;1.92;;;11.10;99.90;;;;;;5034378;28;20523;-44
2023/03/19 05:31:43;;;;;;;4.00;2.13;;;11.10;99.90;;;;;;5034079;28;20172;-43
2023/03/19 05:34:09;;;;;;;3.40;2.20;;;11.10;99.90;;;;;;5033820;28;20183;-44
2023/03/19 05:36:34;;;;;;;3.78;1.80;;;11.10;99.90;;;;;;5033867;28;20219;-44
2023/03/19 05:39:00;;;;;;;4.13;1.83;;;11.10;99.90;;;;;;5033671;28;20171;-44
2023/03/19 05:41:26;;;;;;;2.55;1.88;;;;;;;;;;5034048;28;20170;-46
2023/03/19 05:43:52;;;;;;;3.08;1.83;;;11.10;99.90;;;;;;5034077;28;20168;-43
2023/03/19 05:46:18;;;;;;;4.65;2.20;;;11.10;99.90;;;;;;5033908;28;20635;-46
2023/03/19 05:48:43;;;;;;;3.45;2.20;;;11.10;99.90;;;;;;5033752;28;20199;-43
2023/03/19 05:51:10;;;;;;;4.30;1.92;;;11.10;99.90;;;;;;5033606;28;20254;-44
2023/03/19 05:53:36;;;;;;;4.35;1.80;;;11.20;99.90;;;;;;5033630;28;20164;-44
2023/03/19 05:56:02;;;;;;;6.18;2.20;;;11.20;99.90;;;;;;5033705;28;20657;-44
2023/03/19 05:58:27;;;;;;;3.58;2.47;;;11.20;99.90;;;;;;5033928;28;20177;-47
2023/03/19 06:00:55;;;;;;;4.13;2.28;;;11.20;99.90;;;;;;5033638;28;20500;-44
2023/03/19 06:03:21;;;;;;;5.10;1.95;;;11.20;99.90;;;;;;5033658;28;20674;-44
2023/03/19 06:05:50;;;;;;;7.28;2.15;;;11.20;99.90;;;;;;5033323;28;20163;-44
2023/03/19 06:08:15;;;;;;;6.15;2.08;;;11.30;99.90;;;;;;5033062;28;20597;-44
2023/03/19 06:10:41;;;;;;;5.22;1.98;;;11.30;99.90;;;;;;5032814;28;20167;-46
2023/03/19 06:13:07;;;;;;;4.25;1.88;;;11.30;99.90;;;;;;5032848;28;20239;-46
2023/03/19 06:15:32;;;;;;;5.13;2.58;;;11.30;99.90;;;;;;5033159;28;20257;-43
2023/03/19 06:17:58;;;;;;;6.10;3.10;;;11.30;99.90;;;;;;5032941;28;20170;-47
2023/03/19 06:20:24;;;;;;;3.63;2.22;;;;;;;;;;5033357;28;20654;-44
2023/03/19 06:22:50;;;;;;;4.00;2.13;;;11.30;99.90;;;;;;5033565;28;20221;-43
2023/03/19 06:25:16;;;;;;;3.88;2.45;;;11.40;99.90;;;;;;5033133;28;20259;-47
2023/03/19 06:27:42;;;;;;;5.80;2.20;;;11.40;99.90;;;;;;5032868;28;20566;-44
2023/03/19 06:30:09;;;;;;;2.65;2.15;;;11.40;99.90;;;;;;5032839;28;20160;-44
2023/03/19 06:32:35;;;;;;;2.83;1.98;;;11.40;99.90;;;;;;5033104;28;20662;-43
2023/03/19 06:35:00;;;;;;;2.78;2.05;;;11.40;99.90;;;;;;5032341;28;20172;-48
2023/03/19 06:37:26;;;;;;;4.95;2.10;;;11.40;99.90;;;;;;5032842;28;20179;-45
2023/03/19 06:39:53;;;;;;;3.08;2.38;;;;;;;;;;5032764;28;20559;-44
2023/03/19 06:42:20;;;;;;;2.38;1.70;;;11.40;99.90;;;;;;5032952;28;20191;-44
2023/03/19 06:44:46;;;;;;;3.92;1.98;;;11.40;99.90;;;;;;5032599;28;20163;-45
2023/03/19 06:47:13;;;;;;;3.33;2.05;;;11.60;99.90;;;;;;5032414;28;20697;-43
2023/03/19 06:49:38;;;;;;;4.95;2.22;;;11.60;99.90;;;;;;5032797;28;20175;-45
2023/03/19 06:52:04;;;;;;;5.15;2.20;;;11.70;99.90;;;;;;5032569;28;20632;-45
2023/03/19 06:54:30;;;;;;;6.40;2.38;;;11.60;99.90;;;;;;5032638;28;20164;-44
2023/03/19 06:56:56;;;;;;;2.88;1.98;;;;;;;;;;5032523;28;20167;-45
2023/03/19 06:59:22;;;;;;;4.40;2.42;;;;;;;;;;5032648;28;20186;-43
2023/03/19 07:01:48;;;;;;;3.15;2.15;;;11.80;99.90;;;;;;5032444;28;20238;-44
2023/03/19 07:04:13;;;;;;;3.40;2.60;;;11.90;99.90;;;;;;5032536;28;20167;-44
2023/03/19 07:06:39;;;;;;;6.88;3.10;;;12.00;99.90;;;;;;5031970;28;20173;-43
2023/03/19 07:09:05;;;;;;;5.25;3.25;;;12.00;99.90;;;;;;5032078;28;20586;-43
2023/03/19 07:11:31;;;;;;;8.55;3.40;;;11.90;99.90;;;;;;5032117;28;20163;-44
2023/03/19 07:13:56;;;;;;;7.25;3.95;;;12.00;99.90;;;;;;5030501;28;20476;-44
2023/03/19 07:16:22;;;;;;;5.75;3.95;;;;;;;;;;5031272;28;20206;-44
2023/03/19 07:18:48;;;;;;;5.15;2.88;;;12.00;99.90;;;;;;5031600;28;20183;-44
2023/03/19 07:21:13;;;;;;;2.50;2.03;;;12.00;99.90;;;;;;5031878;28;20206;-44
2023/03/19 07:23:40;;;;;;;4.05;2.67;;;12.00;99.90;;;;;;5030069;28;20666;-44
2023/03/19 07:26:05;;;;;;;11.55;5.50;;;12.10;99.90;;;;;;5031819;28;20171;-44
2023/03/19 07:28:31;;;;;;;8.18;4.50;;;;;;;;;;5031337;28;20173;-44
2023/03/19 07:30:57;;;;;;;4.40;3.30;;;12.20;99.90;;;;;;5031475;28;20167;-45
2023/03/19 07:33:22;;;;;;;7.30;4.28;;;12.20;99.90;;;;;;5031255;28;20250;-45
2023/03/19 07:35:48;;;;;;;5.03;3.55;;;12.20;99.90;;;;;;5031321;28;20175;-44
2023/03/19 07:38:14;;;;;;;4.88;2.47;;;12.20;99.90;;;;;;5031305;28;20168;-46
2023/03/19 07:40:40;;;;;;;3.50;2.28;;;12.20;99.90;;;;;;5030933;28;20180;-47
2023/03/19 07:43:06;;;;;;;4.65;3.17;;;;;;;;;;5031369;28;20202;-44
2023/03/19 07:45:31;;;;;;;4.47;3.67;;;12.30;99.90;;;;;;5031356;28;20301;-43
2023/03/19 07:47:57;;;;;;;4.20;3.20;;;12.30;99.90;;;;;;5030666;28;20175;-45
2023/03/19 07:50:22;;;;;;;5.65;3.55;;;12.40;99.90;;;;;;5031194;28;20662;-44
2023/03/19 07:52:50;;;;;;;5.05;2.75;;;12.40;99.90;;;;;;5030719;28;20678;-44
2023/03/19 07:55:16;;;;;;;4.45;3.42;;;;;;;;;;5031237;28;20178;-45
2023/03/19 07:57:42;;;;;;;3.58;3.22;;;12.50;99.90;;;;;;5030610;28;20525;-45
2023/03/19 08:00:09;;;;;;;5.50;3.10;;;12.60;99.90;;;;;;5030858;28;20159;-44
2023/03/19 08:02:35;;;;;;;5.10;2.90;;;;;;;;;;5029340;28;20257;-47
2023/03/19 08:05:03;;;;;;;6.10;4.15;;;12.60;99.90;;;;;;5030621;28;20174;-46
2023/03/19 08:07:31;;;;;;;8.18;4.25;;;12.60;99.90;;;;;;5030770;28;20219;-45
2023/03/19 08:09:57;;;;;;;5.60;4.32;;;12.70;99.90;;;;;;5030618;28;20179;-44
2023/03/19 08:12:23;;;;;;;8.43;3.92;;;12.70;99.90;;;;;;5030509;28;20202;-45
2023/03/19 08:14:49;;;;;;;7.18;3.95;;;12.70;99.90;;;;;;5031026;28;20162;-49
2023/03/19 08:17:16;;;;;;;5.50;3.22;;;;;;;;;;5029185;28;20183;-45
2023/03/19 08:19:42;;;;;;;7.93;4.50;;;;;;;;;;5030322;28;20654;-46
2023/03/19 08:22:08;;;;;;;6.18;3.28;;;12.70;99.90;;;;;;5029547;28;20199;-44
2023/03/19 08:24:33;;;;;;;5.13;3.25;;;12.60;99.90;;;;;;5031214;28;20575;-45
2023/03/19 08:26:59;;;;;;;9.85;3.60;;;12.70;99.90;;;;;;5030944;28;20635;-44
2023/03/19 08:29:26;;;;;;;20.90;4.78;;;12.70;99.90;;;;;;5030385;28;20308;-44
2023/03/19 08:31:52;;;;;;;12.18;4.88;;;;;;;;;;5030553;28;20176;-47
2023/03/19 08:34:18;;;;;;;13.57;5.55;;;13.00;99.90;;;;;;5030172;28;20221;-45
2023/03/19 08:36:44;;;;;;;6.30;3.50;;;13.00;99.90;;;;;;5030693;28;20163;-56
2023/03/19 08:39:09;;;;;;;6.10;3.47;;;13.10;99.90;;;;;;5030334;28;20174;-45
2023/03/19 08:41:35;;;;;;;6.28;3.35;;;13.10;99.90;;;;;;5029683;28;20168;-44
2023/03/19 08:44:04;;;;;;;5.32;3.08;;;13.20;99.90;;;;;;5029719;28;20168;-44
2023/03/19 08:46:30;;;;;;;8.50;4.03;;;13.30;99.90;;;;;;5029089;28;20226;-45
2023/03/19 08:48:55;;;;;;;5.53;3.80;;;13.40;99.90;;;;;;5030442;28;20179;-52
2023/03/19 08:51:24;;;;;;;6.55;3.45;;;;;;;;;;5030723;28;20174;-44
2023/03/19 08:53:50;;;;;;;4.50;3.10;;;13.50;99.90;;;;;;5031107;28;20710;-48
2023/03/19 08:56:15;;;;;;;5.15;3.50;;;13.60;99.90;;;;;;5030540;28;20251;-45
2023/03/19 08:58:41;;;;;;;9.80;5.55;;;13.60;99.90;;;;;;5032891;28;20252;-48
2023/03/19 09:01:10;;;;;;;6.75;3.83;;;13.60;99.90;;;;;;5034100;28;20619;-46
2023/03/19 09:03:36;;;;;;;6.60;3.97;;;13.50;99.90;;;;;;5034159;28;20659;-46
2023/03/19 09:06:04;;;;;;;6.80;4.43;;;13.40;99.90;;;;;;5032455;28;20179;-45
2023/03/19 09:08:30;;;;;;;7.13;3.45;;;13.30;99.90;;;;;;5034095;28;20244;-45
2023/03/19 09:10:57;;;;;;;3.92;3.40;;;13.30;99.90;;;;;;5034088;28;20569;-45
2023/03/19 09:13:23;;;;;;;6.55;3.40;;;;;;;;;;5033618;28;20186;-45
2023/03/19 09:15:49;;;;;;;3.20;2.58;;;13.30;99.90;;;;;;5034029;28;20163;-44
2023/03/19 09:18:15;;;;;;;3.90;2.80;;;13.30;99.90;;;;;;5033924;28;20544;-45
2023/03/19 09:20:41;;;;;;;4.65;3.45;;;13.20;99.90;;;;;;5033961;28;20624;-44
2023/03/19 09:23:07;;;;;;;5.70;2.83;;;13.20;99.90;;;;;;5032585;28;20269;-45
2023/03/19 09:25:33;;;;;;;3.40;2.30;;;13.30;99.90;;;;;;5033917;28;20197;-45
2023/03/19 09:27:58;;;;;;;2.22;2.03;;;13.20;99.90;;;;;;5032603;28;20680;-45
2023/03/19 09:30:24;;;;;;;3.17;2.13;;;13.30;99.90;;;;;;5033511;28;20168;-45
2023/03/19 09:32:49;;;;;;;4.85;2.40;;;13.40;99.90;;;;;;5034314;28;20233;-44
2023/03/19 09:35:15;;;;;;;3.35;2.15;;;;;;;;;;5032541;28;20170;-44
2023/03/19 09:37:41;;;;;;;3.17;2.42;;;13.80;99.90;;;;;;5032269;28;20175;-45
2023/03/19 09:40:15;;;;;;;3.53;2.30;;;14.00;99.90;;;;;;5033669;28;20246;-45
2023/03/19 09:43:18;;;;;;;3.42;2.47;;;14.20;99.90;;;;;;5033821;28;20233;-45
2023/03/19 09:45:45;;;;;;;3.95;2.38;;;14.30;99.90;;;;;;5033461;28;20195;-45
2023/03/19 09:48:19;;;;;;;3.50;2.17;;;14.20;99.90;;;;;;5033565;28;20658;-45
2023/03/19 09:50:47;;;;;;;2.40;2.20;;;14.30;99.90;;;;;;5033385;28;20171;-45
2023/03/19 09:53:38;;;;;;;2.58;2.38;;;14.40;99.90;;;;;;5032197;28;20202;-58
2023/03/19 09:56:08;;;;;;;3.83;2.60;;;14.30;99.90;;;;;;5033584;28;20533;-57
2023/03/19 09:58:35;;;;;;;4.88;2.15;;;14.30;99.90;;;;;;5032993;28;20532;-45
2023/03/19 10:01:03;;;;;;;2.90;2.63;;;14.30;99.90;;;;;;5033070;28;20186;-57
2023/03/19 10:03:29;;;;;;;2.63;2.17;;;14.40;99.90;;;;;;5032868;28;20226;-46
2023/03/19 10:06:18;;;;;;;1.92;1.83;;;14.60;99.90;;;;;;5033177;28;20587;-56
2023/03/19 10:09:02;;;;;;;2.20;2.00;;;14.60;99.90;;;;;;5032197;28;20215;-57
2023/03/19 10:11:34;;;;;;;2.38;2.17;;;14.70;99.90;;;;;;5032739;28;20258;-58
2023/03/19 10:14:26;;;;;;;3.65;1.77;;;14.50;99.90;;;;;;5032276;28;20171;-58
2023/03/19 10:16:54;;;;;;;2.67;1.75;;;14.70;99.90;;;;;;5029600;28;20184;-45
2023/03/19 10:19:39;;;;;;;1.88;1.77;;;14.70;99.90;;;;;;5032780;28;20181;-47
2023/03/19 10:22:11;;;;;;;1.77;1.67;;;14.70;99.90;;;;;;5032350;28;20210;-53
2023/03/19 10:24:41;;;;;;;3.08;1.95;;;14.70;99.90;;;;;;5032156;28;20184;-53
2023/03/19 10:27:19;;;;;;;2.35;1.77;;;14.70;99.90;;;;;;5032517;28;20532;-53
2023/03/19 10:29:45;;;;;;;1.90;1.50;;;14.50;99.90;;;;;;5032759;28;20249;-57
2023/03/19 10:32:13;;;;;;;2.35;1.60;;;14.50;99.90;;;;;;5030779;28;20714;-58
2023/03/19 10:34:45;;;;;;;2.47;1.80;;;14.40;99.90;;;;;;5032047;28;20175;-57
2023/03/19 10:37:42;;;;;;;1.70;1.55;;;14.30;99.90;;;;;;5032260;28;20178;-45
2023/03/19 10:40:20;;;;;;;2.03;1.58;;;14.40;99.90;;;;;;5030955;28;20516;-57
2023/03/19 10:43:11;;;;;;;2.22;1.50;;;14.50;99.90;;;;;;5032483;28;20203;-58
2023/03/19 10:45:37;;;;;;;3.83;1.67;;;;;;;;;;5031806;28;20191;-47
2023/03/19 10:48:04;;;;;;;1.77;1.60;;;14.60;99.90;;;;;;5031561;28;20234;-45
2023/03/19 10:50:52;;;;;;;2.47;1.83;;;14.80;99.90;;;;;;5031911;28;20533;-44
2023/03/19 10:53:17;;;;;;;1.80;1.55;;;14.80;99.90;;;;;;5031884;28;20205;-47
2023/03/19 10:56:28;;;;;;;2.22;1.83;;;14.90;99.90;;;;;;5031787;28;20687;-45
2023/03/19 10:58:59;;;;;;;2.08;1.20;;;14.90;99.90;;;;;;5032176;28;20179;-56
2023/03/19 11:01:33;;;;;;;2.20;1.60;;;14.80;99.90;;;;;;5032244;28;20175;-51
2023/03/19 11:04:00;;;;;;;1.42;1.33;;;14.80;99.90;;;;;;5032354;28;20183;-47
2023/03/19 11:06:33;;;;;;;2.55;1.27;;;14.80;99.90;;;;;;5032267;28;20171;-48
2023/03/19 11:09:03;;;;;;;3.28;1.55;;;14.70;99.90;;;;;;5031924;28;20272;-48
2023/03/19 11:11:41;;;;;;;2.08;1.38;;;14.50;99.90;;;;;;5031873;28;20168;-46
2023/03/19 11:14:19;;;;;;;1.77;1.52;;;14.40;99.90;;;;;;5031831;28;20221;-50
2023/03/19 11:16:50;;;;;;;3.97;1.55;;;14.50;99.90;;;;;;5031568;28;20622;-45
2023/03/19 11:19:28;;;;;;;1.65;1.20;;;14.60;99.90;;;;;;5031756;28;20183;-48
2023/03/19 11:22:04;;;;;;;3.03;1.50;;;14.60;99.90;;;;;;5030310;28;20236;-46
2023/03/19 11:24:37;;;;;;;4.82;1.88;;;14.70;99.90;;;;;;5031764;28;20175;-49
2023/03/19 11:27:04;;;;;;;3.40;1.30;;;14.90;99.90;;;;;;5031754;28;20178;-45
2023/03/19 11:29:30;;;;;;;1.98;1.50;;;15.00;99.90;;;;;;5031789;28;20171;-48
2023/03/19 11:32:19;;;;;;;9.63;6.30;;;15.00;99.90;;;;;;5031336;28;20526;-53
2023/03/19 11:34:51;;;;;;;3.50;1.60;;;15.00;99.90;;;;;;5030982;28;20583;-46
2023/03/19 11:37:47;;;;;;;2.17;1.73;;;15.10;99.90;;;;;;5031522;28;20178;-56
2023/03/19 11:40:30;;;;;;;2.95;1.42;;;15.10;99.90;;;;;;5031080;28;20167;-45
2023/03/19 11:43:24;;;;;;;3.33;1.35;;;15.20;99.90;;;;;;5031455;28;20203;-49
2023/03/19 11:45:55;;;;;;;1.25;1.13;;;15.30;99.90;;;;;;5031543;28;20250;-45
2023/03/19 11:48:39;;;;;;;2.25;1.02;;;15.50;99.90;;;;;;5031798;28;20167;-44
2023/03/19 11:51:18;;;;;;;2.40;1.30;;;15.80;99.90;;;;;;5031318;28;20171;-54
2023/03/19 11:54:08;;;;;;;1.83;1.10;;;15.80;99.90;;;;;;5031332;28;20651;-49
2023/03/19 11:57:01;;;;;;;1.08;0.90;;;15.90;99.90;;;;;;5031402;28;20250;-49
2023/03/19 11:59:53;;;;;;;2.78;1.63;;;16.00;99.90;;;;;;5031236;28;20629;-50
2023/03/19 12:02:50;;;;;;;1.02;0.93;;;16.10;99.90;;;;;;5031554;28;20689;-50
2023/03/19 12:05:20;;;;;;;3.03;1.80;;;16.20;99.90;;;;;;5031266;28;20274;-55
2023/03/19 12:08:16;;;;;;;1.58;1.05;;;16.30;99.90;;;;;;5031054;28;20249;-45
2023/03/19 12:11:00;;;;;;;0.70;0.65;;;16.40;99.90;;;;;;5030788;28;20270;-50
2023/03/19 12:13:53;;;;;;;1.88;0.70;;;16.20;99.90;;;;;;5030774;28;20190;-54
2023/03/19 12:16:19;;;;;;;4.32;2.33;;;16.20;99.90;;;;;;5031434;28;20201;-53
2023/03/19 12:19:04;;;;;;;2.38;0.90;;;16.20;99.90;;;;;;5031009;28;20258;-56
2023/03/19 12:21:55;;;;;;;1.08;0.95;;;16.40;99.90;;;;;;5030721;28;20638;-57
2023/03/19 12:24:27;;;;;;;2.13;1.00;;;16.40;99.90;;;;;;5031267;28;20175;-57
2023/03/19 12:27:32;;;;;;;2.17;1.13;;;16.20;99.90;;;;;;5031124;28;20577;-56
2023/03/19 12:30:13;;;;;;;5.50;1.73;;;16.30;99.90;;;;;;5030962;28;20274;-54
2023/03/19 12:32:54;;;;;;;2.40;2.20;;;16.00;99.90;;;;;;5031677;28;20224;-48
2023/03/19 12:35:28;;;;;;;1.98;1.88;;;16.20;99.90;;;;;;5035043;28;20540;-56
2023/03/19 12:38:12;;;;;;;3.00;2.33;;;16.20;99.90;;;;;;5034733;28;20163;-55
2023/03/19 12:40:49;;;;;;;5.45;4.95;;;16.10;99.90;;;;;;5034543;28;20237;-57
2023/03/19 12:43:24;;;;;;;2.50;2.25;;;16.30;99.90;;;;;;5034767;28;20214;-56
2023/03/19 12:45:57;;;;;;;3.47;2.70;;;16.20;99.90;;;;;;5035086;28;20171;-57
2023/03/19 12:48:27;;;;;;;7.88;2.42;;;16.10;99.90;;;;;;5034808;28;20172;-56
2023/03/19 12:50:57;;;;;;;2.58;2.03;;;16.10;99.90;;;;;;5034658;28;20643;-56
2023/03/19 12:53:46;;;;;;;3.03;2.50;;;16.00;99.90;;;;;;5034548;28;20640;-52
2023/03/19 12:56:28;;;;;;;2.92;2.40;;;15.90;99.90;;;;;;5034526;28;20670;-57
2023/03/19 12:59:28;;;;;;;2.80;2.55;;;15.90;99.90;;;;;;5034362;28;20178;-55
2023/03/19 13:02:29;;;;;;;3.42;2.70;;;15.90;99.90;;;;;;5032372;28;20301;-56
2023/03/19 13:05:25;;;;;;;3.55;2.78;;;15.80;99.90;;;;;;5034496;28;20163;-49